Time;durP1;ratioP1;P1;durP2;ratioP2;P2;SDS_P1;SDS_P2;PMS_P1;PMS_P2;Temp;Humidity;BMP_temperature;BMP_pressure;BME280_temperature;BME280_humidity;BME280_pressure;Samples;Min_cycle;Max_cycle;Signal;HPM_P1;HPM_P2
2023/03/06 00:01:07;;;;;;;;;;;;;;;;;;4943846;28;20092;-81
2023/03/06 00:03:32;;;;;;;;;;;;;;;;;;4960433;28;19930;-81
2023/03/06 00:05:58;;;;;;;;;;;;;;;;;;4944027;28;19948;-80
2023/03/06 00:08:24;;;;;;;;;;;;;;;;;;4947484;28;20017;-81
2023/03/06 00:10:49;;;;;;;;;;;;;;;;;;4946120;28;20011;-81
2023/03/06 00:13:15;;;;;;;;;;;;;;;;;;4948358;28;20599;-81
2023/03/06 00:15:40;;;;;;;;;;;;;;;;;;4948531;28;19919;-80
2023/03/06 00:18:06;;;;;;;;;;;;;;;;;;4948171;28;19946;-81
2023/03/06 00:20:32;;;;;;;;;;;;;;;;;;4964547;28;19922;-81
2023/03/06 00:22:57;;;;;;;;;;;;;;;;;;4951820;28;19945;-81
2023/03/06 00:25:23;;;;;;;;;;;;;;;;;;4942759;28;20062;-81
2023/03/06 00:27:48;;;;;;;;;;;;;;;;;;4931640;28;19919;-81
2023/03/06 00:30:15;;;;;;;;;;;;;;;;;;4949995;28;19925;-81
2023/03/06 00:32:40;;;;;;;;;;;;;;;;;;4938145;28;19925;-82
2023/03/06 00:35:06;;;;;;;;;;;;;;;;;;4937894;28;19918;-82
2023/03/06 00:37:31;;;;;;;;;;;;;;;;;;4932280;28;19963;-82
2023/03/06 00:39:57;;;;;;;;;;;;;;;;;;4934958;28;19915;-80
2023/03/06 00:42:22;;;;;;;;;;;;;;;;;;4950475;28;19985;-82
2023/03/06 00:44:47;;;;;;;;;;;;;;;;;;4937579;28;20426;-82
2023/03/06 00:47:15;;;;;;;;;;;;;;;;;;4917075;28;19919;-82
2023/03/06 00:49:41;;;;;;;;;;;;;;;;;;4945680;28;19961;-83
2023/03/06 00:52:06;;;;;;;;;;;;;;;;;;4944864;28;19954;-81
2023/03/06 00:54:31;;;;;;;;;;;;;;;;;;4948659;28;20354;-81
2023/03/06 00:56:57;;;;;;;;;;;;;;;;;;4934198;28;20404;-81
2023/03/06 00:59:22;;;;;;;;;;;;;;;;;;4933110;28;19914;-81
2023/03/06 01:01:47;;;;;;;;;;;;;;;;;;4931308;28;19929;-82
2023/03/06 01:04:13;;;;;;;;;;;;;;;;;;4941117;28;19950;-81
2023/03/06 01:06:38;;;;;;;;;;;;;;;;;;4942419;28;19918;-82
2023/03/06 01:09:04;;;;;;;;;;;;;;;;;;4936119;28;19922;-82
2023/03/06 01:11:29;;;;;;;;;;;;;;;;;;4957789;28;19922;-81
2023/03/06 01:13:55;;;;;;;;;;;;;;;;;;4933100;28;19915;-81
2023/03/06 01:16:20;;;;;;;;;;;;;;;;;;4933663;28;20434;-82
2023/03/06 01:18:45;;;;;;;;;;;;;;;;;;4944042;28;19915;-82
2023/03/06 01:21:11;;;;;;;;;;;;;;;;;;4940230;28;20390;-81
2023/03/06 01:23:36;;;;;;;;;;;;;;;;;;4948922;28;19921;-82
2023/03/06 01:26:02;;;;;;;;;;;;;;;;;;4952577;28;19926;-81
2023/03/06 01:28:27;;;;;;;;;;;;;;;;;;4935980;28;19970;-81
2023/03/06 01:30:52;;;;;;;;;;;;;;;;;;4936082;28;20295;-81
2023/03/06 01:33:18;;;;;;;;;;;;;;;;;;4953895;28;20359;-81
2023/03/06 01:35:43;;;;;;;;;;;;;;;;;;4945823;28;19919;-81
2023/03/06 01:38:08;;;;;;;;;;;;;;;;;;4948018;28;19974;-81
2023/03/06 01:40:34;;;;;;;;;;;;;;;;;;4927584;28;19977;-81
2023/03/06 01:43:07;;;;;;;;;;;;;;;;;;4927388;28;19919;-82
2023/03/06 01:45:33;;;;;;;;;;;;;;;;;;4939855;28;19970;-81
2023/03/06 01:47:58;;;;;;;;;;;;;;;;;;4958061;28;20701;-81
2023/03/06 01:50:23;;;;;;;;;;;;;;;;;;4943478;28;19926;-81
2023/03/06 01:52:51;;;;;;;;;;;;;;;;;;4957547;28;19926;-80
2023/03/06 01:55:18;;;;;;;;;;;;;;;;;;4941074;28;19918;-81
2023/03/06 01:57:44;;;;;;;;;;;;;;;;;;4958405;28;19974;-81
2023/03/06 02:00:11;;;;;;;;;;;;;;;;;;4942820;28;20450;-81
2023/03/06 02:02:36;;;;;;;;;;;;;;;;;;4926136;28;19925;-81
2023/03/06 02:05:02;;;;;;;;;;;;;;;;;;4957138;28;20298;-81
2023/03/06 02:07:27;;;;;;;;;;;;;;;;;;4942640;28;20442;-80
2023/03/06 02:09:53;;;;;;;;;;;;;;;;;;4945885;28;20286;-80
2023/03/06 02:12:18;;;;;;;;;;;;;;;;;;4959599;28;19918;-80
2023/03/06 02:14:43;;;;;;;;;;;;;;;;;;4962328;28;19922;-80
2023/03/06 02:17:10;;;;;;;;;;;;;;;;;;4945724;28;19974;-80
2023/03/06 02:19:54;;;;;;;;;;;;;;;;;;4948673;28;19942;-80
2023/03/06 02:22:19;;;;;;;;;;;;;;;;;;4963114;28;20331;-81
2023/03/06 02:24:47;;;;;;;;;;;;;;;;;;4951336;28;19997;-81
2023/03/06 02:27:13;;;;;;;;;;;;;;;;;;4951977;28;19918;-81
2023/03/06 02:29:38;;;;;;;;;;;;;;;;;;4953204;28;19974;-81
2023/03/06 02:32:04;;;;;;;;;;;;;;;;;;4951552;28;19918;-81
2023/03/06 02:34:29;;;;;;;;;;;;;;;;;;4967493;28;20353;-81
2023/03/06 02:36:55;;;;;;;;;;;;;;;;;;4935054;28;19923;-82
2023/03/06 02:39:21;;;;;;;;;;;;;;;;;;4966428;28;19919;-81
2023/03/06 02:41:46;;;;;;;;;;;;;;;;;;4937402;28;19910;-82
2023/03/06 02:44:12;;;;;;;;;;;;;;;;;;4963290;28;19914;-83
2023/03/06 02:46:37;;;;;;;;;;;;;;;;;;4939812;28;19927;-81
2023/03/06 02:49:02;;;;;;;;;;;;;;;;;;4950631;28;19969;-81
2023/03/06 02:51:28;;;;;;;;;;;;;;;;;;4953891;28;19914;-81
2023/03/06 02:53:53;;;;;;;;;;;;;;;;;;4949298;28;19998;-82
2023/03/06 02:56:18;;;;;;;;;;;;;;;;;;4949583;28;20270;-81
2023/03/06 02:58:44;;;;;;;;;;;;;;;;;;4949882;28;19972;-81
2023/03/06 03:01:09;;;;;;;;;;;;;;;;;;4947585;28;19956;-82
2023/03/06 03:03:34;;;;;;;;;;;;;;;;;;4938768;28;19918;-80
2023/03/06 03:06:00;;;;;;;;;;;;;;;;;;4961916;28;19940;-81
2023/03/06 03:08:26;;;;;;;;;;;;;;;;;;4959749;28;19919;-82
2023/03/06 03:10:51;;;;;;;;;;;;;;;;;;4943671;28;19923;-82
2023/03/06 03:13:18;;;;;;;;;;;;;;;;;;4960838;28;19929;-81
2023/03/06 03:15:43;;;;;;;;;;;;;;;;;;4944857;28;19925;-82
2023/03/06 03:18:09;;;;;;;;;;;;;;;;;;4943998;28;20009;-81
2023/03/06 03:20:34;;;;;;;;;;;;;;;;;;4941873;28;19919;-82
2023/03/06 03:23:00;;;;;;;;;;;;;;;;;;4943644;28;19919;-83
2023/03/06 03:25:25;;;;;;;;;;;;;;;;;;4943030;28;20009;-83
2023/03/06 03:27:50;;;;;;;;;;;;;;;;;;4943982;28;20214;-83
2023/03/06 03:30:16;;;;;;;;;;;;;;;;;;4938347;28;19921;-82
2023/03/06 03:32:41;;;;;;;;;;;;;;;;;;4940991;28;19933;-82
2023/03/06 03:35:08;;;;;;;;;;;;;;;;;;4946518;28;19942;-81
2023/03/06 03:37:33;;;;;;;;;;;;;;;;;;4946687;28;20413;-81
2023/03/06 03:39:59;;;;;;;;;;;;;;;;;;4942515;28;19918;-81
2023/03/06 03:42:24;;;;;;;;;;;;;;;;;;4946522;28;19952;-83
2023/03/06 03:44:49;;;;;;;;;;;;;;;;;;4947160;28;20333;-83
2023/03/06 03:47:15;;;;;;;;;;;;;;;;;;4944160;28;19926;-83
2023/03/06 03:49:40;;;;;;;;;;;;;;;;;;4945630;28;19938;-82
2023/03/06 03:52:05;;;;;;;;;;;;;;;;;;4959269;28;19923;-83
2023/03/06 03:54:30;;;;;;;;;;;;;;;;;;4945490;28;19961;-82
2023/03/06 03:56:56;;;;;;;;;;;;;;;;;;4945076;28;19922;-83
2023/03/06 03:59:21;;;;;;;;;;;;;;;;;;4945219;28;19918;-82
2023/03/06 04:01:47;;;;;;;;;;;;;;;;;;4959276;28;21926;-83
2023/03/06 04:04:12;;;;;;;;;;;;;;;;;;4945317;28;19923;-83
2023/03/06 04:06:37;;;;;;;;;;;;;;;;;;4928860;28;19994;-80
2023/03/06 04:09:03;;;;;;;;;;;;;;;;;;4946600;28;19950;-80
2023/03/06 04:11:28;;;;;;;;;;;;;;;;;;4961632;28;19918;-81
2023/03/06 04:13:54;;;;;;;;;;;;;;;;;;4951105;28;19918;-81
2023/03/06 04:16:19;;;;;;;;;;;;;;;;;;4942304;28;20001;-81
2023/03/06 04:18:44;;;;;;;;;;;;;;;;;;4933976;28;20001;-83
2023/03/06 04:21:10;;;;;;;;;;;;;;;;;;4949804;28;19921;-82
2023/03/06 04:23:35;;;;;;;;;;;;;;;;;;4930406;28;20375;-81
2023/03/06 04:26:00;;;;;;;;;;;;;;;;;;4914450;28;19966;-81
2023/03/06 04:28:26;;;;;;;;;;;;;;;;;;4944242;28;19918;-81
2023/03/06 04:30:51;;;;;;;;;;;;;;;;;;4938898;28;19925;-83
2023/03/06 04:33:16;;;;;;;;;;;;;;;;;;4942765;28;19915;-82
2023/03/06 04:35:42;;;;;;;;;;;;;;;;;;4934556;28;20022;-82
2023/03/06 04:38:07;;;;;;;;;;;;;;;;;;4943358;28;19928;-81
2023/03/06 04:40:33;;;;;;;;;;;;;;;;;;4949588;28;19945;-81
2023/03/06 04:42:59;;;;;;;;;;;;;;;;;;4930490;28;20002;-82
2023/03/06 04:45:25;;;;;;;;;;;;;;;;;;4916289;28;20345;-83
2023/03/06 04:47:50;;;;;;;;;;;;;;;;;;4946810;28;20398;-82
2023/03/06 04:50:16;;;;;;;;;;;;;;;;;;4931100;28;19919;-83
2023/03/06 04:52:41;;;;;;;;;;;;;;;;;;4949300;28;19978;-82
2023/03/06 04:55:07;;;;;;;;;;;;;;;;;;4930788;28;19980;-81
2023/03/06 04:57:36;;;;;;;;;;;;;;;;;;4915690;28;20250;-82
2023/03/06 05:00:06;;;;;;;;;;;;;;;;;;4930926;28;20286;-83
2023/03/06 05:02:31;;;;;;;;;;;;;;;;;;4940332;28;19919;-80
2023/03/06 05:04:57;;;;;;;;;;;;;;;;;;4944051;28;20300;-79
2023/03/06 05:07:22;;;;;;;;;;;;;;;;;;4942344;28;20371;-79
2023/03/06 05:09:47;;;;;;;;;;;;;;;;;;4943389;28;19927;-80
2023/03/06 05:12:13;;;;;;;;;;;;;;;;;;4941141;28;19993;-80
2023/03/06 05:14:38;;;;;;;;;;;;;;;;;;4942331;28;19958;-79
2023/03/06 05:17:03;;;;;;;;;;;;;;;;;;4942663;28;20402;-79
2023/03/06 05:19:29;;;;;;;;;;;;;;;;;;4945690;28;19915;-80
2023/03/06 05:21:54;;;;;;;;;;;;;;;;;;4932140;28;19914;-80
2023/03/06 05:24:19;;;;;;;;;;;;;;;;;;4942000;28;19926;-80
2023/03/06 05:26:45;;;;;;;;;;;;;;;;;;4943139;28;20029;-79
2023/03/06 05:29:10;;;;;;;;;;;;;;;;;;4934624;28;19950;-79
2023/03/06 05:31:35;;;;;;;;;;;;;;;;;;4920932;28;20363;-79
2023/03/06 05:34:01;;;;;;;;;;;;;;;;;;4930465;28;20355;-79
2023/03/06 05:36:26;;;;;;;;;;;;;;;;;;4929974;28;19923;-79
2023/03/06 05:38:51;;;;;;;;;;;;;;;;;;4952514;28;19941;-80
2023/03/06 05:41:16;;;;;;;;;;;;;;;;;;4949315;28;19915;-80
2023/03/06 05:43:42;;;;;;;;;;;;;;;;;;4932142;28;19918;-82
2023/03/06 05:46:07;;;;;;;;;;;;;;;;;;4926646;28;20040;-82
2023/03/06 05:48:33;;;;;;;;;;;;;;;;;;4959681;28;20632;-82
2023/03/06 05:50:58;;;;;;;;;;;;;;;;;;4945626;28;19925;-81
2023/03/06 05:53:25;;;;;;;;;;;;;;;;;;4927763;28;19915;-82
2023/03/06 05:56:04;;;;;;;;;;;;;;;;;;4945429;28;19922;-82
2023/03/06 05:58:30;;;;;;;;;;;;;;;;;;4939538;28;19985;-81
2023/03/06 06:00:55;;;;;;;;;;;;;;;;;;4924814;28;20355;-82
2023/03/06 06:03:21;;;;;;;;;;;;;;;;;;4939212;28;19921;-87
2023/03/06 06:05:46;;;;;;;;;;;;;;;;;;4912209;28;19950;-83
2023/03/06 06:08:11;;;;;;;;;;;;;;;;;;4944044;28;19926;-82
2023/03/06 06:10:37;;;;;;;;;;;;;;;;;;4946262;28;20009;-82
2023/03/06 06:13:02;;;;;;;;;;;;;;;;;;4946986;28;20374;-83
2023/03/06 06:15:28;;;;;;;;;;;;;;;;;;4941319;28;19919;-84
2023/03/06 06:17:56;;;;;;;;;;;;;;;;;;4945430;28;19922;-84
2023/03/06 06:20:22;;;;;;;;;;;;;;;;;;4945156;28;19918;-84
2023/03/06 06:22:47;;;;;;;;;;;;;;;;;;4956871;28;19919;-84
2023/03/06 06:25:12;;;;;;;;;;;;;;;;;;4945481;28;20000;-84
2023/03/06 06:27:38;;;;;;;;;;;;;;;;;;4946274;28;19960;-84
2023/03/06 06:30:04;;;;;;;;;;;;;;;;;;4944056;28;19918;-83
2023/03/06 06:32:29;;;;;;;;;;;;;;;;;;4958899;28;20377;-83
2023/03/06 06:34:54;;;;;;;;;;;;;;;;;;4946940;28;19918;-84
2023/03/06 06:37:20;;;;;;;;;;;;;;;;;;4941627;28;19968;-83
2023/03/06 06:39:45;;;;;;;;;;;;;;;;;;4946380;28;19922;-83
2023/03/06 06:42:10;;;;;;;;;;;;;;;;;;4937016;28;20381;-83
2023/03/06 06:44:36;;;;;;;;;;;;;;;;;;4946899;28;19926;-83
2023/03/06 06:47:02;;;;;;;;;;;;;;;;;;4944976;28;20259;-84
2023/03/06 06:49:27;;;;;;;;;;;;;;;;;;4926717;29;19914;-84
2023/03/06 06:51:53;;;;;;;;;;;;;;;;;;4957734;28;19997;-85
2023/03/06 06:54:19;;;;;;;;;;;;;;;;;;4959403;28;20067;-80
2023/03/06 06:56:44;;;;;;;;;;;;;;;;;;4938146;28;20370;-80
2023/03/06 06:59:09;;;;;;;;;;;;;;;;;;4939824;28;20017;-80
2023/03/06 07:01:35;;;;;;;;;;;;;;;;;;4942140;28;19926;-80
2023/03/06 07:04:00;;;;;;;;;;;;;;;;;;4945048;28;19918;-80
2023/03/06 07:06:25;;;;;;;;;;;;;;;;;;4947320;28;19918;-81
2023/03/06 07:08:50;;;;;;;;;;;;;;;;;;4962393;28;20397;-80
2023/03/06 07:11:16;;;;;;;;;;;;;;;;;;4945379;28;19943;-80
2023/03/06 07:13:42;;;;;;;;;;;;;;;;;;4939890;28;19941;-80
2023/03/06 07:16:07;;;;;;;;;;;;;;;;;;4943505;28;19918;-80
2023/03/06 07:18:32;;;;;;;;;;;;;;;;;;4949288;28;19965;-80
2023/03/06 07:20:58;;;;;;;;;;;;;;;;;;4943994;28;19925;-80
2023/03/06 07:23:23;;;;;;;;;;;;;;;;;;4932969;29;19918;-80
2023/03/06 07:25:49;;;;;;;;;;;;;;;;;;4944587;28;19997;-80
2023/03/06 07:28:14;;;;;;;;;;;;;;;;;;4947062;28;19918;-80
2023/03/06 07:30:40;;;;;;;;;;;;;;;;;;4947664;28;19915;-80
2023/03/06 07:33:05;;;;;;;;;;;;;;;;;;4961296;28;19926;-80
2023/03/06 07:35:30;;;;;;;;;;;;;;;;;;4933320;28;20299;-81
2023/03/06 07:37:56;;;;;;;;;;;;;;;;;;4948132;28;19930;-81
2023/03/06 07:40:21;;;;;;;;;;;;;;;;;;4946504;28;19986;-81
2023/03/06 07:42:47;;;;;;;;;;;;;;;;;;4926750;28;19919;-80
2023/03/06 07:45:12;;;;;;;;;;;;;;;;;;4929866;28;19965;-80
2023/03/06 07:47:38;;;;;;;;;;;;;;;;;;4931643;28;20813;-80
2023/03/06 07:50:05;;;;;;;;;;;;;;;;;;4964199;28;19973;-81
2023/03/06 07:52:32;;;;;;;;;;;;;;;;;;4947305;28;19993;-81
2023/03/06 07:54:58;;;;;;;;;;;;;;;;;;4936209;28;19919;-81
2023/03/06 07:57:23;;;;;;;;;;;;;;;;;;4950168;28;20502;-80
2023/03/06 07:59:49;;;;;;;;;;;;;;;;;;4950518;28;19918;-80
2023/03/06 08:02:14;;;;;;;;;;;;;;;;;;4945354;28;19918;-82
2023/03/06 08:04:39;;;;;;;;;;;;;;;;;;4967165;28;19918;-80
2023/03/06 08:07:05;;;;;;;;;;;;;;;;;;4965686;28;19929;-79
2023/03/06 08:09:30;;;;;;;;;;;;;;;;;;4945194;28;19922;-80
2023/03/06 08:11:55;;;;;;;;;;;;;;;;;;4948676;28;19922;-80
2023/03/06 08:14:21;;;;;;;;;;;;;;;;;;4951244;28;20433;-80
2023/03/06 08:16:47;;;;;;;;;;;;;;;;;;4965406;28;19969;-79
2023/03/06 08:19:13;;;;;;;;;;;;;;;;;;4964112;28;19925;-79
2023/03/06 08:21:39;;;;;;;;;;;;;;;;;;4943523;28;19915;-80
2023/03/06 08:24:04;;;;;;;;;;;;;;;;;;4962307;28;20001;-80
2023/03/06 08:26:30;;;;;;;;;;;;;;;;;;4947002;28;19914;-80
2023/03/06 08:28:56;;;;;;;;;;;;;;;;;;4944656;28;19915;-80
2023/03/06 08:31:26;;;;;;;;;;;;;;;;;;4924792;28;20379;-81
2023/03/06 08:33:52;;;;;;;;;;;;;;;;;;4933141;28;19915;-80
2023/03/06 08:36:17;;;;;;;;;;;;;;;;;;4957735;28;19973;-79
2023/03/06 08:38:42;;;;;;;;;;;;;;;;;;4964408;28;19922;-80
2023/03/06 08:41:07;;;;;;;;;;;;;;;;;;4944441;28;19926;-79
2023/03/06 08:43:34;;;;;;;;;;;;;;;;;;4949834;28;19968;-80
2023/03/06 08:46:00;;;;;;;;;;;;;;;;;;4950831;28;20879;-80
2023/03/06 08:48:25;;;;;;;;;;;;;;;;;;4945169;28;20065;-80
2023/03/06 08:50:50;;;;;;;;;;;;;;;;;;4936883;28;20378;-80
2023/03/06 08:53:16;;;;;;;;;;;;;;;;;;4950510;28;19936;-81
2023/03/06 08:55:41;;;;;;;;;;;;;;;;;;4950800;28;19922;-80
2023/03/06 08:58:07;;;;;;;;;;;;;;;;;;4951630;28;20398;-79
2023/03/06 09:00:33;;;;;;;;;;;;;;;;;;4946727;28;19922;-79
2023/03/06 09:02:58;;;;;;;;;;;;;;;;;;4952256;28;20366;-80
2023/03/06 09:05:23;;;;;;;;;;;;;;;;;;4951261;28;19918;-81
2023/03/06 09:07:49;;;;;;;;;;;;;;;;;;4948411;28;19922;-82
2023/03/06 09:10:15;;;;;;;;;;;;;;;;;;4954406;28;19945;-81
2023/03/06 09:12:40;;;;;;;;;;;;;;;;;;4927011;28;20029;-81
2023/03/06 09:15:05;;;;;;;;;;;;;;;;;;4964026;28;20069;-80
2023/03/06 09:17:31;;;;;;;;;;;;;;;;;;4945856;28;20613;-80
2023/03/06 09:19:56;;;;;;;;;;;;;;;;;;4950268;28;20390;-81
2023/03/06 09:22:21;;;;;;;;;;;;;;;;;;4943165;28;19982;-81
2023/03/06 09:24:47;;;;;;;;;;;;;;;;;;4948168;28;20669;-81
2023/03/06 09:27:13;;;;;;;;;;;;;;;;;;4944061;28;19918;-81
2023/03/06 09:29:38;;;;;;;;;;;;;;;;;;4954436;28;19925;-80
2023/03/06 09:32:03;;;;;;;;;;;;;;;;;;4947129;28;19919;-81
2023/03/06 09:34:29;;;;;;;;;;;;;;;;;;4947367;28;20009;-80
2023/03/06 09:36:54;;;;;;;;;;;;;;;;;;4943539;28;19922;-80
2023/03/06 09:39:19;;;;;;;;;;;;;;;;;;4935742;28;19914;-81
2023/03/06 09:41:44;;;;;;;;;;;;;;;;;;4948605;28;20586;-81
2023/03/06 09:44:14;;;;;;;;;;;;;;;;;;4933814;28;19918;-81
2023/03/06 09:46:41;;;;;;;;;;;;;;;;;;4945968;28;19957;-81
2023/03/06 09:49:19;;;;;;;;;;;;;;;;;;4945779;28;19919;-81
2023/03/06 09:51:51;;;;;;;;;;;;;;;;;;4951024;28;19950;-81
2023/03/06 09:54:16;;;;;;;;;;;;;;;;;;4948176;28;19914;-83
2023/03/06 09:56:48;;;;;;;;;;;;;;;;;;4957629;28;20091;-82
2023/03/06 09:59:18;;;;;;;;;;;;;;;;;;4963418;28;19914;-82
2023/03/06 10:01:45;;;;;;;;;;;;;;;;;;4947676;28;19919;-82
2023/03/06 10:04:30;;;;;;;;;;;;;;;;;;4948067;28;20445;-82
2023/03/06 10:07:05;;;;;;;;;;;;;;;;;;4932227;28;19925;-82
2023/03/06 10:09:38;;;;;;;;;;;;;;;;;;4932521;28;19926;-82
2023/03/06 10:12:05;;;;;;;;;;;;;;;;;;4949802;28;19925;-81
2023/03/06 10:14:37;;;;;;;;;;;;;;;;;;4928621;28;19929;-83
2023/03/06 10:17:03;;;;;;;;;;;;;;;;;;4931086;28;19922;-83
2023/03/06 10:19:41;;;;;;;;;;;;;;;;;;4943597;28;19925;-82
2023/03/06 10:22:12;;;;;;;;;;;;;;;;;;4941838;28;19996;-81
2023/03/06 10:24:42;;;;;;;;;;;;;;;;;;4945238;28;20315;-81
2023/03/06 10:27:07;;;;;;;;;;;;;;;;;;4945258;28;19915;-81
2023/03/06 10:29:41;;;;;;;;;;;;;;;;;;4928628;28;19929;-80
2023/03/06 10:32:11;;;;;;;;;;;;;;;;;;4959781;28;19919;-82
2023/03/06 10:34:37;;;;;;;;;;;;;;;;;;4944659;28;20383;-82
2023/03/06 10:37:07;;;;;;;;;;;;;;;;;;4944833;28;19919;-81
2023/03/06 10:39:33;;;;;;;;;;;;;;;;;;4944011;28;19919;-80
2023/03/06 10:41:58;;;;;;;;;;;;;;;;;;4946543;28;19915;-80
2023/03/06 10:44:24;;;;;;;;;;;;;;;;;;4961809;28;19918;-81
2023/03/06 10:46:50;;;;;;;;;;;;;;;;;;4941615;28;19918;-82
2023/03/06 10:49:21;;;;;;;;;;;;;;;;;;4942792;28;20036;-81
2023/03/06 10:52:06;;;;;;;;;;;;;;;;;;4959977;28;19911;-81
2023/03/06 10:54:35;;;;;;;;;;;;;;;;;;4960337;28;19915;-81
2023/03/06 10:57:16;;;;;;;;;;;;;;;;;;4958848;28;20530;-82
2023/03/06 10:59:51;;;;;;;;;;;;;;;;;;4960315;28;19923;-81
2023/03/06 11:02:19;;;;;;;;;;;;;;;;;;4961026;28;19915;-80
2023/03/06 11:04:45;;;;;;;;;;;;;;;;;;4960102;28;19915;-80
2023/03/06 11:07:14;;;;;;;;;;;;;;;;;;4944903;28;20002;-81
2023/03/06 11:09:40;;;;;;;;;;;;;;;;;;4960715;28;19981;-80
2023/03/06 11:12:21;;;;;;;;;;;;;;;;;;4940261;28;20001;-81
2023/03/06 11:15:02;;;;;;;;;;;;;;;;;;4925950;28;20283;-81
2023/03/06 11:17:27;;;;;;;;;;;;;;;;;;4940394;28;20297;-82
2023/03/06 11:20:11;;;;;;;;;;;;;;;;;;4940799;28;19915;-82
2023/03/06 11:22:36;;;;;;;;;;;;;;;;;;4956193;28;20033;-82
2023/03/06 11:25:02;;;;;;;;;;;;;;;;;;4941895;28;20007;-81
2023/03/06 11:27:33;;;;;;;;;;;;;;;;;;4940963;28;19974;-81
2023/03/06 11:29:58;;;;;;;;;;;;;;;;;;4929997;28;20417;-82
2023/03/06 11:32:26;;;;;;;;;;;;;;;;;;4942621;28;19950;-83
2023/03/06 11:35:05;;;;;;;;;;;;;;;;;;4945353;28;19915;-80
2023/03/06 11:37:42;;;;;;;;;;;;;;;;;;4908856;28;19923;-81
2023/03/06 11:40:10;;;;;;;;;;;;;;;;;;4936964;28;20756;-81
2023/03/06 11:42:47;;;;;;;;;;;;;;;;;;4924525;28;19937;-81
2023/03/06 11:45:19;;;;;;;;;;;;;;;;;;4940273;28;19970;-81
2023/03/06 11:47:47;;;;;;;;;;;;;;;;;;4940699;28;19925;-81
2023/03/06 11:50:35;;;;;;;;;;;;;;;;;;4938400;28;19982;-82
2023/03/06 11:53:01;;;;;;;;;;;;;;;;;;4947351;28;19977;-80
2023/03/06 11:55:47;;;;;;;;;;;;;;;;;;4950802;28;19973;-81
2023/03/06 11:58:31;;;;;;;;;;;;;;;;;;4931516;28;19970;-81
2023/03/06 12:01:16;;;;;;;;;;;;;;;;;;4935085;28;19958;-81
2023/03/06 12:03:44;;;;;;;;;;;;;;;;;;4946663;28;19921;-82
2023/03/06 12:06:13;;;;;;;;;;;;;;;;;;4937736;28;19918;-83
2023/03/06 12:08:41;;;;;;;;;;;;;;;;;;4943949;28;19922;-82
2023/03/06 12:11:06;;;;;;;;;;;;;;;;;;4944737;28;19973;-81
2023/03/06 12:13:38;;;;;;;;;;;;;;;;;;4958645;28;19923;-81
2023/03/06 12:16:06;;;;;;;;;;;;;;;;;;4957488;28;19957;-82
2023/03/06 12:18:57;;;;;;;;;;;;;;;;;;4925559;28;20382;-82
2023/03/06 12:21:26;;;;;;;;;;;;;;;;;;4936849;28;20283;-82
2023/03/06 12:23:51;;;;;;;;;;;;;;;;;;4959673;28;20287;-82
2023/03/06 12:26:36;;;;;;;;;;;;;;;;;;4928419;28;19919;-81
2023/03/06 12:29:10;;;;;;;;;;;;;;;;;;4958155;28;19923;-80
2023/03/06 12:31:41;;;;;;;;;;;;;;;;;;4957731;28;19926;-80
2023/03/06 12:34:25;;;;;;;;;;;;;;;;;;4960325;28;20386;-82
2023/03/06 12:37:02;;;;;;;;;;;;;;;;;;4955926;28;19923;-81
2023/03/06 12:39:34;;;;;;;;;;;;;;;;;;4948074;28;20469;-81
2023/03/06 12:42:18;;;;;;;;;;;;;;;;;;4946662;28;19922;-80
2023/03/06 12:45:02;;;;;;;;;;;;;;;;;;4938928;28;20302;-81
2023/03/06 12:47:28;;;;;;;;;;;;;;;;;;4944906;28;19918;-82
2023/03/06 12:50:03;;;;;;;;;;;;;;;;;;4931215;28;19924;-81
2023/03/06 12:52:30;;;;;;;;;;;;;;;;;;4927862;28;19919;-82
2023/03/06 12:54:55;;;;;;;;;;;;;;;;;;4943812;28;19919;-80
2023/03/06 12:57:22;;;;;;;;;;;;;;;;;;4930290;28;19929;-81
2023/03/06 12:59:48;;;;;;;;;;;;;;;;;;4936953;28;19914;-81
2023/03/06 13:02:13;;;;;;;;;;;;;;;;;;4955859;28;20402;-81
2023/03/06 13:04:41;;;;;;;;;;;;;;;;;;4959486;28;20236;-82
2023/03/06 13:07:15;;;;;;;;;;;;;;;;;;4955200;28;19922;-81
2023/03/06 13:09:59;;;;;;;;;;;;;;;;;;4927970;28;19971;-81
2023/03/06 13:12:25;;;;;;;;;;;;;;;;;;4958387;28;19982;-81
2023/03/06 13:14:52;;;;;;;;;;;;;;;;;;4942840;28;19925;-82
2023/03/06 13:17:34;;;;;;;;;;;;;;;;;;4942904;28;19919;-82
2023/03/06 13:20:12;;;;;;;;;;;;;;;;;;4958999;28;19926;-83
2023/03/06 13:22:38;;;;;;;;;;;;;;;;;;4945321;28;19918;-82
2023/03/06 13:25:15;;;;;;;;;;;;;;;;;;4930492;28;19921;-80
2023/03/06 13:27:45;;;;;;;;;;;;;;;;;;4941044;28;20351;-82
2023/03/06 13:30:29;;;;;;;;;;;;;;;;;;4951920;28;19930;-82
2023/03/06 13:32:55;;;;;;;;;;;;;;;;;;4945291;28;19914;-83
2023/03/06 13:35:32;;;;;;;;;;;;;;;;;;4928939;28;20268;-81
2023/03/06 13:37:57;;;;;;;;;;;;;;;;;;4950259;28;20016;-78
2023/03/06 13:40:27;;;;;;;;;;;;;;;;;;4928334;28;19918;-81
2023/03/06 13:43:03;;;;;;;;;;;;;;;;;;4926803;28;19921;-80
2023/03/06 13:45:28;;;;;;;;;;;;;;;;;;4914423;29;19919;-82
2023/03/06 13:47:54;;;;;;;;;;;;;;;;;;4946220;28;19918;-82
2023/03/06 13:50:28;;;;;;;;;;;;;;;;;;4927304;28;19918;-83
2023/03/06 13:53:23;;;;;;;;;;;;;;;;;;4930996;28;19927;-83
2023/03/06 13:56:03;;;;;;;;;;;;;;;;;;4916678;28;19974;-82
2023/03/06 13:58:38;;;;;;;;;;;;;;;;;;4948440;28;20437;-81
2023/03/06 14:01:03;;;;;;;;;;;;;;;;;;4951414;28;20323;-80
2023/03/06 14:03:47;;;;;;;;;;;;;;;;;;4926950;28;19922;-81
2023/03/06 14:06:31;;;;;;;;;;;;;;;;;;4936696;28;20366;-80
2023/03/06 14:08:56;;;;;;;;;;;;;;;;;;4935021;28;20499;-82
2023/03/06 14:11:22;;;;;;;;;;;;;;;;;;4942665;28;19939;-81
2023/03/06 14:13:47;;;;;;;;;;;;;;;;;;4921247;28;19915;-81
2023/03/06 14:16:18;;;;;;;;;;;;;;;;;;4928888;28;19993;-83
2023/03/06 14:18:45;;;;;;;;;;;;;;;;;;4936963;28;19914;-83
2023/03/06 14:21:12;;;;;;;;;;;;;;;;;;4927534;28;20017;-83
2023/03/06 14:23:41;;;;;;;;;;;;;;;;;;4930556;28;20393;-83
2023/03/06 14:26:06;;;;;;;;;;;;;;;;;;4925099;28;20463;-82
2023/03/06 14:28:32;;;;;;;;;;;;;;;;;;4935405;28;20005;-82
2023/03/06 14:30:58;;;;;;;;;;;;;;;;;;4925680;29;20339;-82
2023/03/06 14:33:33;;;;;;;;;;;;;;;;;;4925705;29;19918;-82
2023/03/06 14:35:59;;;;;;;;;;;;;;;;;;4945325;28;20847;-83
2023/03/06 14:38:25;;;;;;;;;;;;;;;;;;4960612;28;19997;-84
2023/03/06 14:40:51;;;;;;;;;;;;;;;;;;4943967;28;20693;-83
2023/03/06 14:43:23;;;;;;;;;;;;;;;;;;4924581;28;19918;-85
2023/03/06 14:45:50;;;;;;;;;;;;;;;;;;4938602;28;19914;-83
2023/03/06 14:48:15;;;;;;;;;;;;;;;;;;4929088;28;20382;-83
2023/03/06 14:50:41;;;;;;;;;;;;;;;;;;4942740;28;19919;-83
2023/03/06 14:53:23;;;;;;;;;;;;;;;;;;4944403;28;20281;-84
2023/03/06 14:55:52;;;;;;;;;;;;;;;;;;4945706;28;19923;-83
2023/03/06 14:58:34;;;;;;;;;;;;;;;;;;4940939;28;20386;-82
2023/03/06 15:01:04;;;;;;;;;;;;;;;;;;4930900;28;19919;-82
2023/03/06 15:03:33;;;;;;;;;;;;;;;;;;4937433;28;19918;-82
2023/03/06 15:05:58;;;;;;;;;;;;;;;;;;4941826;28;20359;-83
2023/03/06 15:08:25;;;;;;;;;;;;;;;;;;4944598;28;19922;-84
2023/03/06 15:10:54;;;;;;;;;;;;;;;;;;4944463;28;19918;-83
2023/03/06 15:13:21;;;;;;;;;;;;;;;;;;4959829;28;20009;-83
2023/03/06 15:15:58;;;;;;;;;;;;;;;;;;4944616;28;19922;-83
2023/03/06 15:18:27;;;;;;;;;;;;;;;;;;4945226;28;19925;-84
2023/03/06 15:20:54;;;;;;;;;;;;;;;;;;4929367;28;19925;-84
2023/03/06 15:23:33;;;;;;;;;;;;;;;;;;4932611;28;19919;-85
2023/03/06 15:25:59;;;;;;;;;;;;;;;;;;4954717;28;19937;-84
2023/03/06 15:28:27;;;;;;;;;;;;;;;;;;4947078;28;19918;-83
2023/03/06 15:31:18;;;;;;;;;;;;;;;;;;4948520;28;20018;-85
2023/03/06 15:33:43;;;;;;;;;;;;;;;;;;4948427;28;20448;-83
2023/03/06 15:36:26;;;;;;;;;;;;;;;;;;4934248;28;19970;-83
2023/03/06 15:38:53;;;;;;;;;;;;;;;;;;4948872;28;19922;-83
2023/03/06 15:41:32;;;;;;;;;;;;;;;;;;4948386;28;20485;-82
2023/03/06 15:43:58;;;;;;;;;;;;;;;;;;4962099;28;19918;-83
2023/03/06 15:46:24;;;;;;;;;;;;;;;;;;4931989;28;20392;-83
2023/03/06 15:48:57;;;;;;;;;;;;;;;;;;4948360;28;19918;-85
2023/03/06 15:51:22;;;;;;;;;;;;;;;;;;4947803;28;19924;-83
2023/03/06 15:53:47;;;;;;;;;;;;;;;;;;4957705;28;20715;-84
2023/03/06 15:56:13;;;;;;;;;;;;;;;;;;4931745;28;20041;-84
2023/03/06 15:58:38;;;;;;;;;;;;;;;;;;4948283;28;19941;-83
2023/03/06 16:01:04;;;;;;;;;;;;;;;;;;4935524;28;19972;-85
2023/03/06 16:03:29;;;;;;;;;;;;;;;;;;4963958;28;20013;-84
2023/03/06 16:05:54;;;;;;;;;;;;;;;;;;4931358;28;20782;-86
2023/03/06 16:08:20;;;;;;;;;;;;;;;;;;4947836;28;21385;-85
2023/03/06 16:10:45;;;;;;;;;;;;;;;;;;4957885;28;19919;-84
2023/03/06 16:13:15;;;;;;;;;;;;;;;;;;4948032;28;19998;-86
2023/03/06 16:15:44;;;;;;;;;;;;;;;;;;4946282;28;20394;-83
2023/03/06 16:18:09;;;;;;;;;;;;;;;;;;4948531;28;19922;-84
2023/03/06 16:20:35;;;;;;;;;;;;;;;;;;4932310;28;20841;-83
2023/03/06 16:23:00;;;;;;;;;;;;;;;;;;4931797;29;20389;-83
2023/03/06 16:25:26;;;;;;;;;;;;;;;;;;4950060;28;20005;-82
2023/03/06 16:27:58;;;;;;;;;;;;;;;;;;4948317;28;19962;-82
2023/03/06 16:30:28;;;;;;;;;;;;;;;;;;4961921;28;20584;-83
2023/03/06 16:32:53;;;;;;;;;;;;;;;;;;4947416;28;19918;-83
2023/03/06 16:35:19;;;;;;;;;;;;;;;;;;4948085;28;20342;-82
2023/03/06 16:37:44;;;;;;;;;;;;;;;;;;4932617;28;20318;-83
2023/03/06 16:40:23;;;;;;;;;;;;;;;;;;4932546;28;19969;-81
2023/03/06 16:42:49;;;;;;;;;;;;;;;;;;4946279;28;20475;-85
2023/03/06 16:45:14;;;;;;;;;;;;;;;;;;4949453;28;20001;-82
2023/03/06 16:47:40;;;;;;;;;;;;;;;;;;4947984;28;20318;-81
2023/03/06 16:50:05;;;;;;;;;;;;;;;;;;4932708;28;19918;-80